Time;durP1;ratioP1;P1;durP2;ratioP2;P2;SDS_P1;SDS_P2;PMS_P1;PMS_P2;Temp;Humidity;BMP_temperature;BMP_pressure;BME280_temperature;BME280_humidity;BME280_pressure;Samples;Min_cycle;Max_cycle;Signal;HPM_P1;HPM_P2
2022/08/15 00:00:21;;;;;;;4.92;3.45;;;;;;;24.20;52.16;100028.22;1715197;82;20996;-43
2022/08/15 00:02:48;;;;;;;8.33;3.37;;;;;;;24.25;52.31;100027.34;1735991;82;21293;-43
2022/08/15 00:05:20;;;;;;;8.65;3.50;;;;;;;24.27;52.52;100034.66;1715061;82;20881;-43
2022/08/15 00:07:48;;;;;;;6.72;3.27;;;;;;;24.25;53.24;100031.31;1735889;82;21018;-43
2022/08/15 00:10:17;;;;;;;5.83;3.33;;;;;;;24.18;53.44;100024.86;1735888;82;20886;-43
2022/08/15 00:12:44;;;;;;;9.30;4.08;;;;;;;24.13;53.61;100033.16;1735847;82;20941;-43
2022/08/15 00:15:14;;;;;;;4.55;3.10;;;;;;;24.10;53.51;100028.95;1736054;82;21236;-43
2022/08/15 00:17:43;;;;;;;8.30;4.08;;;;;;;24.06;53.61;100032.83;1735792;82;20921;-42
2022/08/15 00:20:10;;;;;;;7.67;3.55;;;;;;;24.05;53.74;100029.83;1735924;82;20926;-43
2022/08/15 00:22:46;;;;;;;4.85;3.30;;;;;;;24.04;53.98;100027.33;1715009;82;20948;-43
2022/08/15 00:25:13;;;;;;;5.12;3.52;;;;;;;24.02;54.29;100031.41;1735825;82;20945;-43
2022/08/15 00:27:40;;;;;;;8.78;3.87;;;;;;;23.99;54.43;100029.45;1735931;82;21133;-43
2022/08/15 00:30:09;;;;;;;10.18;3.40;;;;;;;23.97;54.72;100020.34;1736006;82;21672;-43
2022/08/15 00:32:36;;;;;;;12.55;3.70;;;;;;;23.94;55.08;100027.20;1735819;82;21467;-42
2022/08/15 00:35:35;;;;;;;9.83;3.50;;;;;;;23.91;55.61;100022.17;1735956;82;20890;-42
2022/08/15 00:37:38;;;;;;;7.72;4.00;;;;;;;23.89;55.94;100021.47;1732989;82;20956;-43
2022/08/15 00:40:06;;;;;;;6.12;4.08;;;;;;;23.82;56.53;100016.66;1735943;82;21230;-42
2022/08/15 00:42:34;;;;;;;6.12;3.75;;;;;;;23.78;56.81;100009.95;1735847;82;21008;-43
2022/08/15 00:45:01;;;;;;;9.08;3.95;;;;;;;23.78;57.16;100011.77;1735957;82;20960;-43
2022/08/15 00:47:28;;;;;;;7.35;4.05;;;;;;;23.74;57.59;100007.67;1736014;82;21507;-42
2022/08/15 00:49:55;;;;;;;5.53;3.87;;;;;;;23.70;57.92;100003.61;1735926;81;20925;-42
2022/08/15 00:52:26;;;;;;;7.55;4.08;;;;;;;23.65;58.20;99996.90;1735856;82;21229;-43
2022/08/15 00:55:00;;;;;;;6.78;4.03;;;;;;;23.64;58.54;99997.05;1735977;81;20846;-44
2022/08/15 00:57:35;;;;;;;7.15;4.00;;;;;;;23.62;58.91;99998.94;1735675;81;21004;-43
2022/08/15 01:00:08;;;;;;;8.93;4.15;;;;;;;23.54;59.25;99997.77;1735852;82;20957;-43
2022/08/15 01:02:36;;;;;;;6.65;4.33;;;;;;;23.50;59.68;99997.66;1734871;82;20933;-42
2022/08/15 01:05:09;;;;;;;7.40;4.12;;;;;;;23.44;59.98;100003.44;1735829;82;21158;-43
2022/08/15 01:07:37;;;;;;;5.83;3.87;;;;;;;23.38;60.38;100001.30;1735825;82;20873;-42
2022/08/15 01:10:06;;;;;;;5.40;4.55;;;;;;;23.31;60.75;100007.55;1713812;82;20980;-42
2022/08/15 01:12:33;;;;;;;8.60;4.45;;;;;;;23.23;61.22;100008.58;1735799;81;21443;-42
2022/08/15 01:15:04;;;;;;;16.35;4.78;;;;;;;23.16;61.68;100008.71;1735980;82;20910;-42
2022/08/15 01:17:31;;;;;;;8.93;4.25;;;;;;;23.06;61.94;100000.20;1735870;82;21070;-42
2022/08/15 01:20:12;;;;;;;8.50;4.30;;;;;;;23.03;61.92;99999.59;1735770;81;20921;-41
2022/08/15 01:23:25;;;;;;;8.13;5.00;;;;;;;22.99;62.36;100000.80;1735917;81;20983;-42
2022/08/15 01:26:01;;;;;;;10.72;4.60;;;;;;;22.94;62.66;100003.33;1735792;82;20960;-43
2022/08/15 01:28:41;;;;;;;10.63;4.58;;;;;;;22.85;63.14;99993.97;1735851;82;20968;-43
2022/08/15 01:31:11;;;;;;;11.53;4.75;;;;;;;22.76;63.71;99991.55;1715048;82;21325;-43
2022/08/15 01:33:46;;;;;;;8.75;4.33;;;;;;;22.65;64.23;99993.70;1735713;82;20996;-42
2022/08/15 01:36:13;;;;;;;9.47;5.00;;;;;;;22.59;64.91;99991.53;1735815;82;21051;-42
2022/08/15 01:38:48;;;;;;;6.35;4.72;;;;;;;22.53;65.41;99997.65;1715031;82;20969;-42
2022/08/15 01:41:31;;;;;;;13.25;5.00;;;;;;;22.46;65.99;100006.10;1736023;82;21388;-43
2022/08/15 01:44:16;;;;;;;12.88;4.87;;;;;;;22.35;66.53;99998.51;1713944;82;21805;-42
2022/08/15 01:46:51;;;;;;;6.40;4.75;;;;;;;22.29;67.33;100000.79;1735948;82;20846;-42
2022/08/15 01:49:35;;;;;;;7.65;4.12;;;;;;;22.24;67.83;99994.53;1735733;82;21459;-42
2022/08/15 01:52:03;;;;;;;11.15;4.65;;;;;;;22.20;68.26;99987.82;1715059;82;21475;-43
2022/08/15 01:54:40;;;;;;;6.67;4.35;;;;;;;22.15;68.88;99992.60;1737616;81;21031;-43
2022/08/15 01:57:08;;;;;;;5.53;4.37;;;;;;;22.10;69.19;99989.84;1744288;82;21204;-43
2022/08/15 01:59:35;;;;;;;11.28;5.00;;;;;;;22.05;69.63;99989.31;1744049;82;20916;-42
2022/08/15 02:02:05;;;;;;;10.55;4.55;;;;;;;22.01;69.96;99986.55;1744057;82;21442;-42
2022/08/15 02:04:37;;;;;;;6.37;4.83;;;;;;;21.94;70.27;99985.33;1743918;81;20961;-42
2022/08/15 02:07:12;;;;;;;12.10;4.65;;;;;;;21.86;70.62;99989.02;1744119;82;20977;-42
2022/08/15 02:10:43;;;;;;;13.80;4.90;;;;;;;21.78;71.51;99990.39;1816361;79;22768;-42
2022/08/15 02:13:08;;;;;;;21.45;5.03;;;;;;;21.66;72.10;99994.77;1789248;80;20916;-42
2022/08/15 02:15:36;;;;;;;9.70;4.95;;;;;;;21.59;72.57;99997.91;1789310;80;21138;-42
2022/08/15 02:18:04;;;;;;;6.35;4.55;;;;;;;21.52;73.07;99990.47;1758735;80;21011;-42
2022/08/15 02:20:32;;;;;;;6.60;4.45;;;;;;;21.46;73.18;99996.64;1789366;80;20912;-42
2022/08/15 02:22:59;;;;;;;7.65;4.47;;;;;;;21.39;73.57;100000.20;1789616;79;21026;-42
2022/08/15 02:25:26;;;;;;;10.45;4.58;;;;;;;21.32;74.03;99998.48;1789229;80;20829;-42
2022/08/15 02:27:53;;;;;;;12.50;4.80;;;;;;;21.25;74.57;99999.88;1789364;80;21854;-42
2022/08/15 02:30:21;;;;;;;8.55;5.12;;;;;;;21.20;75.05;99997.55;1789191;80;20932;-42
2022/08/15 02:32:48;;;;;;;17.40;4.80;;;;;;;21.16;75.41;99996.55;1789285;80;21411;-42
2022/08/15 02:35:16;;;;;;;15.50;4.55;;;;;;;21.08;75.59;99986.56;1789194;80;20931;-42
2022/08/15 02:37:46;;;;;;;6.72;4.47;;;;;;;21.04;75.99;99996.94;1789296;80;20987;-42
2022/08/15 02:40:14;;;;;;;9.75;4.75;;;;;;;20.99;76.33;99988.53;1758614;80;21611;-43
2022/08/15 02:42:45;;;;;;;10.28;5.28;;;;;;;20.95;76.68;99986.58;1789284;80;20935;-42
2022/08/15 02:45:12;;;;;;;11.53;4.75;;;;;;;20.89;77.10;99986.55;1789227;80;21459;-42
2022/08/15 02:47:44;;;;;;;6.00;4.40;;;;;;;20.84;77.43;99989.98;1788981;80;20935;-42
2022/08/15 02:50:14;;;;;;;11.33;4.62;;;;;;;20.78;77.68;99992.52;1789234;80;21520;-43
2022/08/15 02:52:47;;;;;;;7.25;4.45;;;;;;;20.77;77.94;99992.61;1789531;80;21200;-42
2022/08/15 02:55:13;;;;;;;7.90;4.95;;;;;;;20.73;78.11;99989.83;1789320;80;20876;-42
2022/08/15 02:57:41;;;;;;;14.07;4.47;;;;;;;20.72;78.45;99993.41;1789423;80;21478;-43
2022/08/15 03:00:13;;;;;;;18.62;4.92;;;;;;;20.70;78.35;99987.42;1789299;80;20900;-43
2022/08/15 03:02:53;;;;;;;5.78;4.83;;;;;;;20.68;78.18;99991.45;1784574;80;20928;-42
2022/08/15 03:05:27;;;;;;;8.68;4.20;;;;;;;20.66;78.24;99984.14;1773990;80;21793;-43
2022/08/15 03:07:54;;;;;;;10.00;4.08;;;;;;;20.66;78.19;99984.14;1788978;80;21485;-44
2022/08/15 03:10:22;;;;;;;6.80;4.45;;;;;;;20.66;78.21;99988.95;1768030;80;20972;-41
2022/08/15 03:12:55;;;;;;;12.00;4.47;;;;;;;20.68;78.12;99991.45;1753179;80;21030;-41
2022/08/15 03:15:33;;;;;;;10.00;4.60;;;;;;;20.70;78.03;99996.62;1766168;80;21552;-42
2022/08/15 03:17:58;;;;;;;6.12;4.83;;;;;;;20.72;77.91;100001.30;1752704;80;21285;-42
2022/08/15 03:20:26;;;;;;;9.25;4.72;;;;;;;20.74;77.76;99999.41;1783751;80;20912;-43
2022/08/15 03:22:53;;;;;;;8.68;4.42;;;;;;;20.76;77.22;100000.14;1783540;80;21553;-43
2022/08/15 03:25:25;;;;;;;6.47;3.87;;;;;;;20.80;76.99;100006.44;1782067;80;20904;-43
2022/08/15 03:27:53;;;;;;;8.65;4.25;;;;;;;20.84;76.75;99999.19;1783538;80;21537;-42
2022/08/15 03:30:20;;;;;;;7.30;4.22;;;;;;;20.89;76.51;99999.70;1752708;80;21530;-42
2022/08/15 03:32:53;;;;;;;15.23;4.45;;;;;;;20.94;76.26;99993.64;1783158;80;21018;-42
2022/08/15 03:35:21;;;;;;;11.48;4.40;;;;;;;21.03;75.35;99993.95;1783431;80;20992;-43
2022/08/15 03:37:49;;;;;;;10.48;3.83;;;;;;;21.15;74.67;99997.05;1783607;80;20936;-43
2022/08/15 03:40:16;;;;;;;15.05;4.00;;;;;;;21.26;73.94;99992.34;1783350;80;20924;-42
2022/08/15 03:43:01;;;;;;;7.45;3.83;;;;;;;21.39;73.32;99985.73;1778369;80;21197;-43
2022/08/15 03:45:28;;;;;;;8.60;3.60;;;;;;;21.51;72.31;99994.05;1783674;80;20884;-42
2022/08/15 03:47:56;;;;;;;5.53;3.70;;;;;;;21.66;71.25;99992.63;1783637;80;20983;-42
2022/08/15 03:50:23;;;;;;;9.68;4.12;;;;;;;21.79;70.94;99993.89;1783391;80;20864;-41
2022/08/15 03:53:00;;;;;;;10.85;3.67;;;;;;;21.88;70.99;99985.80;1783296;80;20975;-43
2022/08/15 03:55:28;;;;;;;9.93;3.85;;;;;;;21.95;70.67;99978.61;1778601;80;21770;-42
2022/08/15 03:57:55;;;;;;;6.87;3.35;;;;;;;21.98;70.69;99981.52;1783563;80;20912;-42
2022/08/15 04:00:26;;;;;;;9.03;3.62;;;;;;;21.97;69.80;99979.83;1783156;80;20967;-42
2022/08/15 04:03:16;;;;;;;12.43;4.60;;;;;;;21.98;69.38;99980.66;1783362;80;20940;-44
2022/08/15 04:05:49;;;;;;;11.25;3.90;;;;;;;21.96;71.13;99982.10;1783362;80;20983;-44
2022/08/15 04:08:15;;;;;;;11.83;3.62;;;;;;;21.79;72.30;99972.81;1783243;80;21883;-44
2022/08/15 04:10:42;;;;;;;8.33;3.72;;;;;;;21.58;74.26;99980.44;1783056;80;20948;-44
2022/08/15 04:13:10;;;;;;;12.63;3.58;;;;;;;21.37;75.13;99975.30;1753211;80;20939;-44
2022/08/15 04:15:37;;;;;;;8.50;4.17;;;;;;;21.20;76.11;99976.50;1783172;80;20936;-44
2022/08/15 04:18:05;;;;;;;11.85;3.90;;;;;;;21.08;77.22;99969.46;1783267;80;21378;-44
2022/08/15 04:20:33;;;;;;;7.28;3.42;;;;;;;21.01;77.10;99974.80;1752892;80;21262;-44
2022/08/15 04:23:02;;;;;;;7.50;3.52;;;;;;;21.02;76.59;99972.53;1782924;80;21003;-44
2022/08/15 04:25:39;;;;;;;8.85;3.58;;;;;;;21.05;75.55;99974.94;1783301;80;20912;-44
2022/08/15 04:28:06;;;;;;;3.72;3.37;;;;;;;21.15;76.50;99983.89;1783356;80;21592;-42
2022/08/15 04:30:39;;;;;;;9.30;4.05;;;;;;;21.22;76.30;99983.81;1752438;80;20955;-42
2022/08/15 04:33:21;;;;;;;5.42;3.42;;;;;;;21.30;77.96;99987.69;1783331;80;21374;-42
2022/08/15 04:35:58;;;;;;;16.10;3.08;;;;;;;21.40;75.08;99993.99;1783117;80;20904;-42
2022/08/15 04:38:25;;;;;;;5.17;3.33;;;;;;;21.50;73.80;99992.37;1765799;80;21003;-42
2022/08/15 04:40:54;;;;;;;8.20;3.37;;;;;;;21.59;71.75;99988.70;1783279;79;21010;-42
2022/08/15 04:43:22;;;;;;;8.43;3.87;;;;;;;21.67;71.43;100006.98;1783357;80;20996;-42
2022/08/15 04:45:51;;;;;;;10.70;3.58;;;;;;;21.71;72.32;100018.14;1783193;80;21489;-43
2022/08/15 04:48:19;;;;;;;10.88;4.03;;;;;;;21.71;72.88;100021.23;1783252;80;21002;-42
2022/08/15 04:50:48;;;;;;;9.55;4.20;;;;;;;21.67;73.85;100026.73;1783416;80;21469;-42
2022/08/15 04:53:15;;;;;;;6.10;3.22;;;;;;;21.63;75.16;100020.47;1783552;80;21462;-43
2022/08/15 04:55:44;;;;;;;9.95;4.05;;;;;;;21.56;75.34;100011.30;1783329;80;20977;-42
2022/08/15 04:58:12;;;;;;;10.78;3.40;;;;;;;21.52;76.12;100006.75;1765906;80;21167;-43
2022/08/15 05:00:43;;;;;;;7.20;3.33;;;;;;;21.44;76.08;100013.87;1783203;80;20966;-42
2022/08/15 05:03:16;;;;;;;7.97;3.33;;;;;;;21.38;75.55;100009.06;1783517;80;20881;-42
2022/08/15 05:05:52;;;;;;;7.65;3.83;;;;;;;21.36;74.84;100010.95;1783191;80;20956;-43
2022/08/15 05:08:20;;;;;;;11.75;3.85;;;;;;;21.40;73.83;100009.78;1783334;80;20975;-42
2022/08/15 05:10:55;;;;;;;12.60;3.98;;;;;;;21.47;73.13;100009.70;1777591;80;21013;-43
2022/08/15 05:13:31;;;;;;;9.60;4.03;;;;;;;21.56;71.86;100015.25;1775093;80;22377;-42
2022/08/15 05:16:00;;;;;;;9.35;3.60;;;;;;;21.64;72.12;100012.47;1775007;80;20912;-42
2022/08/15 05:18:29;;;;;;;14.93;3.80;;;;;;;21.70;72.24;100013.83;1753367;80;21027;-42
2022/08/15 05:20:57;;;;;;;8.95;3.47;;;;;;;21.75;72.07;100011.70;1774968;80;20920;-42
2022/08/15 05:23:25;;;;;;;6.00;3.08;;;;;;;21.82;71.89;100011.60;1775096;80;21145;-42
2022/08/15 05:25:55;;;;;;;7.97;3.27;;;;;;;21.88;71.71;100010.81;1775003;80;21494;-42
2022/08/15 05:28:22;;;;;;;16.05;4.25;;;;;;;21.93;71.63;100009.99;1775206;80;20901;-42
2022/08/15 05:30:49;;;;;;;8.78;4.40;;;;;;;21.98;72.12;100010.48;1774765;80;21489;-43
2022/08/15 05:33:25;;;;;;;11.78;4.08;;;;;;;22.02;72.12;100010.63;1774997;80;20916;-42
2022/08/15 05:35:55;;;;;;;17.67;5.35;;;;;;;22.05;72.10;100002.98;1775393;80;21243;-42
2022/08/15 05:38:35;;;;;;;7.22;3.52;;;;;;;22.05;71.91;100005.12;1774921;80;20838;-42
2022/08/15 05:41:14;;;;;;;13.35;4.08;;;;;;;22.04;72.65;100019.25;1774866;79;21659;-43
2022/08/15 05:43:50;;;;;;;17.95;4.10;;;;;;;22.01;73.59;100021.30;1763870;80;21498;-43
2022/08/15 05:46:46;;;;;;;11.08;4.28;;;;;;;21.92;75.75;100021.48;1774966;80;20992;-43
2022/08/15 05:49:58;;;;;;;8.45;3.80;;;;;;;21.82;77.67;100016.05;1774788;80;21397;-43
2022/08/15 05:53:03;;;;;;;9.33;4.30;;;;;;;21.68;78.13;100016.56;1774905;80;20897;-43
2022/08/15 05:55:54;;;;;;;9.93;3.70;;;;;;;21.54;78.23;100017.52;1775016;80;20909;-43
2022/08/15 05:59:01;;;;;;;10.75;3.67;;;;;;;21.45;79.64;100020.82;1774872;80;20873;-44
2022/08/15 06:01:44;;;;;;;10.58;3.50;;;;;;;21.38;79.85;100014.32;1775092;80;21497;-43
2022/08/15 06:04:21;;;;;;;8.13;3.80;;;;;;;21.38;79.25;100022.22;1747924;80;21600;-43
2022/08/15 06:06:49;;;;;;;14.18;3.65;;;;;;;21.45;79.63;100022.14;1775156;80;20972;-43
2022/08/15 06:09:51;;;;;;;10.90;3.67;;;;;;;21.52;80.12;100022.05;1774916;80;20849;-43
2022/08/15 06:12:31;;;;;;;11.45;3.22;;;;;;;21.63;79.73;100007.30;1774673;80;20893;-43
2022/08/15 06:15:21;;;;;;;12.85;3.40;;;;;;;21.81;77.75;100007.29;1772180;80;20995;-43
2022/08/15 06:17:58;;;;;;;10.90;3.45;;;;;;;22.00;76.96;100003.80;1774426;80;21205;-42
2022/08/15 06:20:45;;;;;;;4.45;3.20;;;;;;;22.21;75.41;100011.41;1774998;80;20905;-42
2022/08/15 06:23:40;;;;;;;7.00;3.20;;;;;;;22.40;73.68;100007.40;1747900;80;20921;-42
2022/08/15 06:26:21;;;;;;;9.83;3.02;;;;;;;22.62;73.37;100014.57;1775128;80;21016;-42
2022/08/15 06:29:17;;;;;;;9.13;2.92;;;;;;;22.83;70.43;100009.90;1774322;80;20916;-42
2022/08/15 06:31:53;;;;;;;12.58;3.65;;;;;;;23.03;68.07;100008.83;1775171;80;21960;-42
2022/08/15 06:34:54;;;;;;;5.37;3.20;;;;;;;23.27;66.11;100014.50;1748652;80;20888;-43
2022/08/15 06:37:51;;;;;;;6.90;3.37;;;;;;;23.50;65.43;100003.44;1774944;80;20892;-42
2022/08/15 06:40:33;;;;;;;8.78;3.42;;;;;;;23.73;64.36;100005.53;1774959;80;21466;-42
2022/08/15 06:43:00;;;;;;;13.15;3.45;;;;;;;23.97;63.96;100017.20;1775093;80;20937;-43
2022/08/15 06:45:38;;;;;;;13.62;3.37;;;;;;;24.21;63.29;100010.89;1765245;80;21177;-42
2022/08/15 06:48:08;;;;;;;12.55;3.62;;;;;;;24.53;63.10;100015.30;1775312;80;20920;-42
2022/08/15 06:50:48;;;;;;;5.78;3.02;;;;;;;24.82;60.52;100018.62;1774999;80;20900;-42
2022/08/15 06:53:29;;;;;;;8.50;3.30;;;;;;;25.01;58.71;100014.40;1772156;80;20932;-42
2022/08/15 06:56:11;;;;;;;6.72;3.72;;;;;;;25.15;57.79;100023.78;1775535;80;20921;-42
2022/08/15 06:59:10;;;;;;;10.70;3.55;;;;;;;25.20;57.26;100014.95;1775395;80;21505;-42
2022/08/15 07:02:27;;;;;;;9.83;3.27;;;;;;;25.24;57.77;100009.73;1774893;80;21454;-42
2022/08/15 07:05:07;;;;;;;13.50;3.50;;;;;;;25.27;57.32;100009.11;1775233;80;26988;-42
2022/08/15 07:08:00;;;;;;;17.45;3.83;;;;;;;25.23;55.30;100010.70;1774981;80;20983;-42
2022/08/15 07:10:44;;;;;;;10.58;3.27;;;;;;;25.21;55.30;100006.50;1773127;80;20924;-43
2022/08/15 07:13:19;;;;;;;7.83;3.17;;;;;;;25.20;53.97;100007.48;1716245;83;21260;-44
2022/08/15 07:16:06;;;;;;;13.53;3.80;;;;;;;25.16;54.64;100013.55;1716338;83;21497;-43
2022/08/15 07:18:45;;;;;;;11.45;3.45;;;;;;;25.11;52.81;100017.05;1715912;83;21429;-42
2022/08/15 07:21:17;;;;;;;5.83;3.37;;;;;;;25.06;54.80;100021.92;1750752;81;21003;-43
2022/08/15 07:24:11;;;;;;;11.20;3.75;;;;;;;25.03;54.21;100027.02;1752507;81;20987;-43
2022/08/15 07:26:48;;;;;;;13.18;3.25;;;;;;;24.99;53.05;100012.84;1752361;82;21930;-42
2022/08/15 07:29:38;;;;;;;15.50;3.65;;;;;;;24.92;53.31;100021.32;1752052;81;20924;-43
2022/08/15 07:32:30;;;;;;;10.00;3.75;;;;;;;24.87;53.00;100028.80;1745959;81;21537;-43
2022/08/15 07:35:16;;;;;;;13.08;3.95;;;;;;;24.78;53.84;100027.80;1749982;81;21012;-43
2022/08/15 07:37:50;;;;;;;;;;;;;;;24.64;54.02;100021.48;1754887;81;21007;-43
2022/08/15 07:40:28;;;;;;;12.47;3.33;;;;;;;24.48;54.48;100025.41;1752457;82;21148;-43
2022/08/15 07:42:56;;;;;;;16.73;3.83;;;;;;;24.29;55.41;100018.69;1752418;81;20893;-43
2022/08/15 07:45:37;;;;;;;13.20;3.92;;;;;;;24.06;56.46;100011.68;1752362;81;20948;-43
2022/08/15 07:48:22;;;;;;;10.03;3.90;;;;;;;23.93;57.38;100013.64;1751092;81;20890;-43
2022/08/15 07:51:19;;;;;;;14.80;4.62;;;;;;;23.86;58.01;100008.48;1698054;83;20884;-43
2022/08/15 07:54:01;;;;;;;11.40;3.95;;;;;;;23.83;58.66;100007.77;1751897;81;21265;-42
2022/08/15 07:56:31;;;;;;;12.13;3.98;;;;;;;23.96;58.52;99995.70;1715500;83;21403;-42
2022/08/15 07:59:22;;;;;;;9.58;3.58;;;;;;;24.23;58.89;100008.95;1716187;83;20967;-42
2022/08/15 08:01:53;;;;;;;7.37;3.75;;;;;;;24.52;58.89;100008.34;1658156;83;20994;-42
2022/08/15 08:04:25;;;;;;;12.53;3.60;;;;;;;24.91;57.18;100007.73;1716260;83;20990;-42
2022/08/15 08:06:58;;;;;;;9.98;3.33;;;;;;;25.23;56.43;100009.38;1752588;81;20992;-43
2022/08/15 08:09:37;;;;;;;12.25;3.67;;;;;;;25.48;57.50;100013.87;1716051;83;20920;-42
2022/08/15 08:12:16;;;;;;;10.82;4.30;;;;;;;25.69;56.79;100007.64;1776517;80;20936;-42
2022/08/15 08:15:14;;;;;;;14.90;4.53;;;;;;;25.90;56.80;100005.36;1783246;80;20972;-42
2022/08/15 08:17:46;;;;;;;15.35;3.65;;;;;;;26.11;56.83;100007.85;1752740;80;20952;-43
2022/08/15 08:20:43;;;;;;;13.62;3.25;;;;;;;26.31;54.79;100010.02;1782935;80;21913;-42
2022/08/15 08:23:37;;;;;;;12.25;3.45;;;;;;;26.52;50.90;100003.23;1783570;80;20995;-42
2022/08/15 08:26:51;;;;;;;11.83;3.55;;;;;;;26.69;50.69;100008.75;1702747;80;21560;-43
2022/08/15 08:29:35;;;;;;;14.85;3.33;;;;;;;26.82;49.22;100001.80;1783430;80;20999;-43
2022/08/15 08:32:18;;;;;;;17.15;4.42;;;;;;;27.14;52.00;99999.23;1783463;80;20932;-43
2022/08/15 08:34:58;;;;;;;11.83;3.35;;;;;;;27.58;50.02;99991.97;1783482;80;21438;-43
2022/08/15 08:37:34;;;;;;;15.85;3.75;;;;;;;27.91;48.64;99982.96;1783007;80;20936;-43
2022/08/15 08:43:39;;;;;;;6.30;3.50;;;;;;;28.46;46.40;99980.25;1783174;80;20084;-43
2022/08/15 08:46:38;;;;;;;10.20;3.35;;;;;;;28.75;43.46;99959.92;1783424;80;20881;-43
2022/08/15 08:49:25;;;;;;;12.00;3.08;;;;;;;29.00;45.08;99979.21;1782994;80;22351;-43
2022/08/15 08:52:03;;;;;;;13.30;3.70;;;;;;;29.28;43.50;99982.97;1765274;80;21520;-42
2022/08/15 08:54:46;;;;;;;11.68;3.02;;;;;;;29.53;44.31;99970.06;1769877;80;20963;-43
2022/08/15 08:57:15;;;;;;;10.93;3.33;;;;;;;29.90;42.19;99966.59;1782470;80;21411;-43
2022/08/15 08:59:57;;;;;;;12.33;3.20;;;;;;;30.11;40.17;99963.95;1783269;80;20944;-44
2022/08/15 09:02:45;;;;;;;11.95;3.45;;;;;;;30.21;40.62;99959.77;1778396;80;21243;-43
2022/08/15 09:05:35;;;;;;;8.90;3.47;;;;;;;30.34;41.98;99963.25;1744275;80;21572;-44
2022/08/15 09:08:11;;;;;;;14.40;3.30;;;;;;;30.53;38.73;99970.03;1783364;80;21034;-43
2022/08/15 09:10:41;;;;;;;9.00;3.67;;;;;;;30.66;39.05;99973.53;1782909;80;21439;-44
2022/08/15 09:15:56;;;;;;;8.15;3.22;;;;;;;31.12;38.24;99966.16;1783425;80;21293;-44
2022/08/15 09:18:49;;;;;;;9.18;3.33;;;;;;;31.25;36.89;99956.27;1783256;80;20876;-44
2022/08/15 09:21:17;;;;;;;9.35;3.10;;;;;;;31.19;37.55;99960.46;1770579;80;21402;-43
2022/08/15 09:23:45;;;;;;;5.12;3.22;;;;;;;31.19;37.60;99960.46;1783060;80;20975;-43
2022/08/15 09:26:29;;;;;;;10.40;4.12;;;;;;;31.27;39.31;99963.59;1783416;80;20912;-44
2022/08/15 09:29:16;;;;;;;9.35;4.08;;;;;;;31.36;38.64;99953.69;1783270;80;22130;-44
2022/08/15 09:31:43;;;;;;;11.33;4.65;;;;;;;31.45;38.17;99956.66;1782934;80;21505;-44
2022/08/15 09:34:37;;;;;;;6.42;4.08;;;;;;;31.45;37.98;99945.12;1783246;80;20936;-43
2022/08/15 09:37:13;;;;;;;16.00;4.35;;;;;;;31.42;37.20;99935.59;1783390;80;20928;-42
2022/08/15 09:39:52;;;;;;;;;;;;;;;31.51;36.39;99946.58;1786178;80;20924;-43
2022/08/15 09:42:42;;;;;;;32.00;5.08;;;;;;;31.63;36.44;99944.81;1782979;80;21213;-43
2022/08/15 09:45:37;;;;;;;12.73;3.60;;;;;;;31.91;38.29;99956.31;1783289;80;20877;-42
2022/08/15 09:48:10;;;;;;;10.85;3.17;;;;;;;32.22;34.24;99960.73;1783239;80;20924;-43
2022/08/15 09:50:58;;;;;;;12.10;4.00;;;;;;;32.24;35.12;99957.37;1764896;80;20893;-43
2022/08/15 09:53:56;;;;;;;18.02;3.87;;;;;;;32.19;33.99;99955.23;1783233;80;20917;-43
2022/08/15 09:56:25;;;;;;;14.63;3.75;;;;;;;31.92;35.17;99961.98;1783074;80;21545;-43
2022/08/15 09:59:05;;;;;;;13.68;4.40;;;;;;;31.99;36.06;99956.75;1783388;80;20979;-43
2022/08/15 10:01:42;;;;;;;9.85;3.65;;;;;;;32.23;34.60;99955.70;1783330;80;20846;-43
2022/08/15 10:04:12;;;;;;;14.47;3.85;;;;;;;32.31;33.43;99945.39;1740073;80;20992;-43
2022/08/15 10:07:00;;;;;;;16.65;3.60;;;;;;;32.16;32.12;99942.22;1783261;80;20919;-43
2022/08/15 10:09:36;;;;;;;15.30;4.15;;;;;;;32.22;32.25;99946.02;1783339;80;21148;-43
2022/08/15 10:12:12;;;;;;;13.22;3.72;;;;;;;32.39;32.81;99931.45;1777096;80;20968;-43
2022/08/15 10:15:04;;;;;;;13.15;3.22;;;;;;;32.75;33.39;99942.44;1776563;80;20987;-43
2022/08/15 10:17:41;;;;;;;9.90;3.42;;;;;;;33.11;32.85;99938.96;1773889;80;21838;-43
2022/08/15 10:20:22;;;;;;;8.55;3.00;;;;;;;33.44;32.82;99931.80;1774931;80;20845;-43
2022/08/15 10:23:04;;;;;;;8.73;2.80;;;;;;;33.82;31.43;99931.52;1775055;80;21912;-43
2022/08/15 10:25:39;;;;;;;7.92;2.52;;;;;;;33.88;31.03;99937.12;1774843;80;21409;-43
2022/08/15 10:28:14;;;;;;;12.68;3.20;;;;;;;33.62;30.10;99933.20;1773646;80;21007;-44
2022/08/15 10:30:46;;;;;;;13.13;3.42;;;;;;;33.35;31.50;99932.92;1774927;80;20929;-42
2022/08/15 10:33:36;;;;;;;7.30;3.77;;;;;;;33.23;31.48;99933.94;1775011;80;20905;-43
2022/08/15 10:36:21;;;;;;;13.80;3.27;;;;;;;33.17;31.15;99931.50;1775205;80;21857;-43
2022/08/15 10:39:29;;;;;;;18.95;3.25;;;;;;;33.16;31.28;99924.48;1774976;80;20975;-42
2022/08/15 10:42:23;;;;;;;6.70;3.12;;;;;;;33.29;33.45;99918.42;1742224;80;20992;-43
2022/08/15 10:45:06;;;;;;;12.13;3.47;;;;;;;33.43;31.21;99920.75;1774992;80;21494;-43
2022/08/15 10:47:56;;;;;;;10.55;3.02;;;;;;;33.46;31.44;99916.34;1747677;80;20973;-43
2022/08/15 10:50:51;;;;;;;8.63;3.17;;;;;;;33.66;33.18;99921.06;1774601;80;21161;-43
2022/08/15 10:53:48;;;;;;;10.93;3.27;;;;;;;33.96;32.79;99925.77;1775125;80;20975;-43
2022/08/15 10:56:22;;;;;;;8.50;3.00;;;;;;;34.05;31.45;99929.14;1774934;80;20980;-44
2022/08/15 10:58:50;;;;;;;11.97;3.45;;;;;;;33.92;32.71;99921.80;1775116;80;20933;-44
2022/08/15 11:01:23;;;;;;;6.87;3.42;;;;;;;34.02;30.82;99926.86;1775199;80;20873;-43
2022/08/15 11:03:55;;;;;;;16.40;3.05;;;;;;;34.21;30.78;99920.45;1775005;80;21120;-43
2022/08/15 11:06:23;;;;;;;11.55;3.30;;;;;;;34.37;29.72;99921.48;1774387;80;20924;-44
2022/08/15 11:08:54;;;;;;;14.58;3.55;;;;;;;34.50;30.27;99929.34;1775078;80;20928;-43
2022/08/15 11:11:27;;;;;;;7.10;3.30;;;;;;;34.48;28.93;99925.50;1774993;80;20932;-43
2022/08/15 11:13:59;;;;;;;10.00;3.65;;;;;;;34.22;29.01;99927.48;1775433;80;20885;-44
2022/08/15 11:16:38;;;;;;;9.53;4.03;;;;;;;33.89;29.07;99924.03;1779280;80;21279;-43
2022/08/15 11:19:15;;;;;;;11.28;3.37;;;;;;;33.70;29.44;99927.69;1783545;80;22187;-43
2022/08/15 11:21:51;;;;;;;5.28;2.95;;;;;;;33.64;30.42;99919.08;1783343;80;21038;-44
2022/08/15 11:24:33;;;;;;;8.30;3.50;;;;;;;33.76;32.39;99919.39;1783385;80;20893;-43
2022/08/15 11:27:16;;;;;;;15.60;3.62;;;;;;;34.06;30.67;99919.22;1783253;80;20995;-43
2022/08/15 11:29:45;;;;;;;13.98;3.62;;;;;;;34.25;29.77;99919.86;1783274;80;21201;-43
2022/08/15 11:32:28;;;;;;;14.98;3.77;;;;;;;34.43;30.85;99902.91;1783049;80;20936;-44
2022/08/15 11:34:56;;;;;;;4.35;3.40;;;;;;;34.51;28.08;99913.54;1783382;80;20889;-43
2022/08/15 11:37:27;;;;;;;15.35;3.62;;;;;;;34.44;29.05;99910.78;1783426;80;20952;-43
2022/08/15 11:40:03;;;;;;;10.08;3.92;;;;;;;34.38;30.70;99922.33;1783408;80;20967;-44
2022/08/15 11:42:38;;;;;;;9.90;3.67;;;;;;;34.35;29.65;99910.61;1783148;80;21396;-43
2022/08/15 11:45:26;;;;;;;16.52;3.95;;;;;;;34.32;30.80;99900.27;1783527;80;20967;-43
2022/08/15 11:47:54;;;;;;;11.43;3.75;;;;;;;34.27;29.86;99902.23;1783237;80;20979;-44
2022/08/15 11:50:37;;;;;;;15.53;3.92;;;;;;;34.17;29.49;99905.77;1783425;80;20967;-43
2022/08/15 11:53:10;;;;;;;10.45;3.47;;;;;;;34.21;31.16;99899.81;1783297;80;21453;-43
2022/08/15 11:55:41;;;;;;;12.60;3.45;;;;;;;34.42;30.74;99906.12;1783540;80;21629;-44
2022/08/15 11:58:20;;;;;;;6.00;3.70;;;;;;;34.64;30.47;99904.71;1783117;80;20880;-43
2022/08/15 12:00:52;;;;;;;20.00;3.60;;;;;;;34.76;28.95;99902.27;1783591;80;21577;-43
2022/08/15 12:03:34;;;;;;;9.65;3.40;;;;;;;34.73;28.62;99898.12;1783251;80;20944;-44
2022/08/15 12:06:18;;;;;;;13.95;3.55;;;;;;;34.70;29.63;99895.84;1783545;80;20960;-44
2022/08/15 12:08:46;;;;;;;13.20;3.80;;;;;;;34.67;30.03;99902.97;1783644;80;21111;-43
2022/08/15 12:11:17;;;;;;;13.00;3.77;;;;;;;34.43;28.06;99909.13;1783286;80;21383;-44
2022/08/15 12:14:13;;;;;;;13.60;4.12;;;;;;;34.21;29.46;99901.66;1783426;80;20983;-43
2022/08/15 12:16:47;;;;;;;10.50;3.65;;;;;;;33.95;29.24;99899.97;1783477;80;21479;-43